sensor_id;sensor_type;location;lat;lon;timestamp;temperature;humidity
68139;DHT22;54940;50.842;4.410;2024-03-23T05:04:26;7.90;99.90
68139;DHT22;54940;50.842;4.410;2024-03-23T05:06:52;8.00;99.90
68139;DHT22;54940;50.842;4.410;2024-03-23T05:09:17;8.00;99.90
68139;DHT22;54940;50.842;4.410;2024-03-23T05:11:43;8.00;99.90
68139;DHT22;54940;50.842;4.410;2024-03-23T05:14:08;7.90;99.90
68139;DHT22;54940;50.842;4.410;2024-03-23T05:16:34;7.90;99.90
68139;DHT22;54940;50.842;4.410;2024-03-23T05:18:59;7.90;99.90
68139;DHT22;54940;50.842;4.410;2024-03-23T05:21:26;7.90;99.90
68139;DHT22;54940;50.842;4.410;2024-03-23T05:23:54;7.90;99.90
68139;DHT22;54940;50.842;4.410;2024-03-23T05:26:21;7.90;99.90
68139;DHT22;54940;50.842;4.410;2024-03-23T05:28:47;7.90;99.90
68139;DHT22;54940;50.842;4.410;2024-03-23T05:31:12;7.80;99.90
68139;DHT22;54940;50.842;4.410;2024-03-23T05:33:47;7.90;99.90
68139;DHT22;54940;50.842;4.410;2024-03-23T05:36:13;7.90;99.90
68139;DHT22;54940;50.842;4.410;2024-03-23T05:38:39;7.90;99.90
68139;DHT22;54940;50.842;4.410;2024-03-23T05:41:04;7.90;99.90
68139;DHT22;54940;50.842;4.410;2024-03-23T05:43:30;7.90;99.90
68139;DHT22;54940;50.842;4.410;2024-03-23T05:45:57;7.90;99.90
68139;DHT22;54940;50.842;4.410;2024-03-23T05:48:23;7.80;99.90
68139;DHT22;54940;50.842;4.410;2024-03-23T05:50:51;7.90;99.90
68139;DHT22;54940;50.842;4.410;2024-03-23T05:53:16;7.80;99.90
68139;DHT22;54940;50.842;4.410;2024-03-23T05:55:42;7.90;99.90
68139;DHT22;54940;50.842;4.410;2024-03-23T05:58:08;7.90;99.90
68139;DHT22;54940;50.842;4.410;2024-03-23T06:00:33;7.90;99.90
68139;DHT22;54940;50.842;4.410;2024-03-23T06:02:59;7.90;99.90
68139;DHT22;54940;50.842;4.410;2024-03-23T06:05:24;7.80;99.90
68139;DHT22;54940;50.842;4.410;2024-03-23T06:07:50;7.80;99.90
68139;DHT22;54940;50.842;4.410;2024-03-23T06:10:15;7.80;99.90
68139;DHT22;54940;50.842;4.410;2024-03-23T07:03:56;7.80;99.90
68139;DHT22;54940;50.842;4.410;2024-03-23T07:08:54;7.70;99.90
68139;DHT22;54940;50.842;4.410;2024-03-23T07:25:04;7.00;99.90
68139;DHT22;54940;50.842;4.410;2024-03-23T07:27:32;6.90;99.90
68139;DHT22;54940;50.842;4.410;2024-03-23T07:30:01;6.90;99.90
68139;DHT22;54940;50.842;4.410;2024-03-23T07:32:26;6.90;99.90
68139;DHT22;54940;50.842;4.410;2024-03-23T07:34:52;7.00;99.90
68139;DHT22;54940;50.842;4.410;2024-03-23T07:37:18;7.40;99.90
68139;DHT22;54940;50.842;4.410;2024-03-23T07:39:43;7.70;99.90
68139;DHT22;54940;50.842;4.410;2024-03-23T07:42:09;8.10;99.90
68139;DHT22;54940;50.842;4.410;2024-03-23T07:44:34;8.80;99.90
68139;DHT22;54940;50.842;4.410;2024-03-23T07:47:03;9.10;99.90
68139;DHT22;54940;50.842;4.410;2024-03-23T07:49:30;9.50;99.90
68139;DHT22;54940;50.842;4.410;2024-03-23T07:51:56;9.90;99.90
68139;DHT22;54940;50.842;4.410;2024-03-23T07:54:24;10.10;99.90
68139;DHT22;54940;50.842;4.410;2024-03-23T07:56:49;10.50;99.90
68139;DHT22;54940;50.842;4.410;2024-03-23T07:59:15;10.50;99.90
68139;DHT22;54940;50.842;4.410;2024-03-23T08:01:40;10.50;99.90
68139;DHT22;54940;50.842;4.410;2024-03-23T08:04:06;10.60;99.90
68139;DHT22;54940;50.842;4.410;2024-03-23T08:06:31;10.60;99.90
68139;DHT22;54940;50.842;4.410;2024-03-23T08:08:59;10.50;99.90
68139;DHT22;54940;50.842;4.410;2024-03-23T08:11:28;10.70;99.90
68139;DHT22;54940;50.842;4.410;2024-03-23T08:13:54;10.60;99.90
68139;DHT22;54940;50.842;4.410;2024-03-23T08:16:20;10.20;99.90
68139;DHT22;54940;50.842;4.410;2024-03-23T08:18:45;9.90;99.90
68139;DHT22;54940;50.842;4.410;2024-03-23T08:21:11;9.70;99.90
68139;DHT22;54940;50.842;4.410;2024-03-23T08:23:39;9.50;99.90
68139;DHT22;54940;50.842;4.410;2024-03-23T08:26:05;9.60;99.90
68139;DHT22;54940;50.842;4.410;2024-03-23T08:28:31;9.90;99.90
68139;DHT22;54940;50.842;4.410;2024-03-23T08:31:03;10.00;99.90
68139;DHT22;54940;50.842;4.410;2024-03-23T08:33:30;9.80;99.90
68139;DHT22;54940;50.842;4.410;2024-03-23T08:35:56;9.70;99.90
68139;DHT22;54940;50.842;4.410;2024-03-23T08:38:22;9.60;99.90
68139;DHT22;54940;50.842;4.410;2024-03-23T08:40:56;9.40;99.90
68139;DHT22;54940;50.842;4.410;2024-03-23T08:43:24;9.30;99.90
68139;DHT22;54940;50.842;4.410;2024-03-23T08:45:50;9.20;99.90
68139;DHT22;54940;50.842;4.410;2024-03-23T08:48:18;9.10;99.90
68139;DHT22;54940;50.842;4.410;2024-03-23T08:50:45;9.00;99.90
68139;DHT22;54940;50.842;4.410;2024-03-23T08:53:11;8.90;99.90
68139;DHT22;54940;50.842;4.410;2024-03-23T08:55:37;8.80;99.90
68139;DHT22;54940;50.842;4.410;2024-03-23T08:58:02;8.80;99.90
68139;DHT22;54940;50.842;4.410;2024-03-23T09:00:33;9.00;99.90
68139;DHT22;54940;50.842;4.410;2024-03-23T09:02:59;9.30;99.90
68139;DHT22;54940;50.842;4.410;2024-03-23T09:05:26;9.50;99.90
68139;DHT22;54940;50.842;4.410;2024-03-23T09:07:53;9.70;99.90
68139;DHT22;54940;50.842;4.410;2024-03-23T09:10:19;10.10;99.90
68139;DHT22;54940;50.842;4.410;2024-03-23T09:12:47;10.10;99.90
68139;DHT22;54940;50.842;4.410;2024-03-23T09:15:13;10.20;99.90
68139;DHT22;54940;50.842;4.410;2024-03-23T09:17:38;10.10;99.90
68139;DHT22;54940;50.842;4.410;2024-03-23T09:20:06;10.20;99.90
68139;DHT22;54940;50.842;4.410;2024-03-23T09:22:32;9.80;99.90
68139;DHT22;54940;50.842;4.410;2024-03-23T09:24:58;9.90;99.90
68139;DHT22;54940;50.842;4.410;2024-03-23T09:27:25;10.30;99.90
68139;DHT22;54940;50.842;4.410;2024-03-23T09:29:51;10.30;99.90
68139;DHT22;54940;50.842;4.410;2024-03-23T09:32:16;10.20;99.90
68139;DHT22;54940;50.842;4.410;2024-03-23T09:34:42;10.10;99.90
68139;DHT22;54940;50.842;4.410;2024-03-23T09:37:07;10.00;99.90
68139;DHT22;54940;50.842;4.410;2024-03-23T09:39:33;10.10;99.90
68139;DHT22;54940;50.842;4.410;2024-03-23T09:41:58;10.10;99.90
68139;DHT22;54940;50.842;4.410;2024-03-23T09:44:24;10.10;99.90
68139;DHT22;54940;50.842;4.410;2024-03-23T09:46:51;10.10;99.90
68139;DHT22;54940;50.842;4.410;2024-03-23T09:49:17;10.30;99.90
68139;DHT22;54940;50.842;4.410;2024-03-23T09:51:42;10.40;99.90
68139;DHT22;54940;50.842;4.410;2024-03-23T09:54:08;10.40;99.90
68139;DHT22;54940;50.842;4.410;2024-03-23T09:56:33;10.40;99.90
68139;DHT22;54940;50.842;4.410;2024-03-23T09:59:02;10.50;99.90
68139;DHT22;54940;50.842;4.410;2024-03-23T10:01:29;10.50;99.90
68139;DHT22;54940;50.842;4.410;2024-03-23T10:03:54;10.40;99.90
68139;DHT22;54940;50.842;4.410;2024-03-23T10:06:21;10.20;99.90
68139;DHT22;54940;50.842;4.410;2024-03-23T10:08:50;10.10;99.90
68139;DHT22;54940;50.842;4.410;2024-03-23T10:11:16;10.10;99.90
68139;DHT22;54940;50.842;4.410;2024-03-23T10:13:42;10.20;99.90
68139;DHT22;54940;50.842;4.410;2024-03-23T10:16:09;10.60;99.90
68139;DHT22;54940;50.842;4.410;2024-03-23T10:18:38;10.60;99.90
68139;DHT22;54940;50.842;4.410;2024-03-23T10:23:35;10.70;99.90
68139;DHT22;54940;50.842;4.410;2024-03-23T10:26:17;10.90;99.90
68139;DHT22;54940;50.842;4.410;2024-03-23T10:39:39;11.40;99.90
68139;DHT22;54940;50.842;4.410;2024-03-23T10:42:09;11.40;99.90
68139;DHT22;54940;50.842;4.410;2024-03-23T10:44:37;11.60;99.90
68139;DHT22;54940;50.842;4.410;2024-03-23T10:47:04;11.80;99.90
68139;DHT22;54940;50.842;4.410;2024-03-23T10:49:31;11.60;99.90
68139;DHT22;54940;50.842;4.410;2024-03-23T10:52:02;11.80;99.90
68139;DHT22;54940;50.842;4.410;2024-03-23T10:54:27;11.90;99.90
68139;DHT22;54940;50.842;4.410;2024-03-23T10:56:59;12.10;99.90
68139;DHT22;54940;50.842;4.410;2024-03-23T10:59:25;12.10;99.90
68139;DHT22;54940;50.842;4.410;2024-03-23T11:01:54;12.30;99.90
68139;DHT22;54940;50.842;4.410;2024-03-23T11:04:29;12.30;99.90
68139;DHT22;54940;50.842;4.410;2024-03-23T11:06:57;12.30;99.90
68139;DHT22;54940;50.842;4.410;2024-03-23T11:09:42;12.30;99.90
68139;DHT22;54940;50.842;4.410;2024-03-23T11:14:46;12.70;99.90
68139;DHT22;54940;50.842;4.410;2024-03-23T11:17:14;13.00;99.90
68139;DHT22;54940;50.842;4.410;2024-03-23T11:19:43;13.00;99.90
68139;DHT22;54940;50.842;4.410;2024-03-23T11:22:14;13.10;99.90
68139;DHT22;54940;50.842;4.410;2024-03-23T11:24:59;13.40;99.90
68139;DHT22;54940;50.842;4.410;2024-03-23T11:27:25;13.20;99.90
68139;DHT22;54940;50.842;4.410;2024-03-23T11:29:51;13.50;99.90
68139;DHT22;54940;50.842;4.410;2024-03-23T11:32:17;13.50;99.90
68139;DHT22;54940;50.842;4.410;2024-03-23T11:34:45;13.20;99.90
68139;DHT22;54940;50.842;4.410;2024-03-23T11:37:11;13.30;99.90
68139;DHT22;54940;50.842;4.410;2024-03-23T11:39:36;13.20;99.90
68139;DHT22;54940;50.842;4.410;2024-03-23T11:42:02;13.10;99.90
68139;DHT22;54940;50.842;4.410;2024-03-23T11:44:27;12.80;99.90
68139;DHT22;54940;50.842;4.410;2024-03-23T11:46:53;12.70;99.90
68139;DHT22;54940;50.842;4.410;2024-03-23T11:49:22;12.50;99.90
68139;DHT22;54940;50.842;4.410;2024-03-23T11:51:48;11.80;99.90
68139;DHT22;54940;50.842;4.410;2024-03-23T11:54:14;11.90;99.90
68139;DHT22;54940;50.842;4.410;2024-03-23T11:56:40;12.10;99.90
68139;DHT22;54940;50.842;4.410;2024-03-23T11:59:11;12.40;99.90
68139;DHT22;54940;50.842;4.410;2024-03-23T12:01:39;12.40;99.90
68139;DHT22;54940;50.842;4.410;2024-03-23T12:04:05;12.20;99.90
68139;DHT22;54940;50.842;4.410;2024-03-23T12:06:31;12.20;99.90
68139;DHT22;54940;50.842;4.410;2024-03-23T12:09:05;12.20;99.90
68139;DHT22;54940;50.842;4.410;2024-03-23T12:11:30;12.20;99.90
68139;DHT22;54940;50.842;4.410;2024-03-23T12:13:56;12.00;99.90
68139;DHT22;54940;50.842;4.410;2024-03-23T12:16:25;11.70;99.90
68139;DHT22;54940;50.842;4.410;2024-03-23T12:18:52;11.30;99.90
68139;DHT22;54940;50.842;4.410;2024-03-23T12:21:19;11.10;99.90
68139;DHT22;54940;50.842;4.410;2024-03-23T12:23:48;11.10;99.90
68139;DHT22;54940;50.842;4.410;2024-03-23T12:26:15;11.00;99.90
68139;DHT22;54940;50.842;4.410;2024-03-23T12:28:43;10.70;99.90
68139;DHT22;54940;50.842;4.410;2024-03-23T12:31:11;10.50;99.90
68139;DHT22;54940;50.842;4.410;2024-03-23T12:33:37;10.40;99.90
68139;DHT22;54940;50.842;4.410;2024-03-23T12:36:02;10.30;99.90
68139;DHT22;54940;50.842;4.410;2024-03-23T12:38:28;10.40;99.90
68139;DHT22;54940;50.842;4.410;2024-03-23T12:40:54;10.80;99.90
68139;DHT22;54940;50.842;4.410;2024-03-23T12:43:19;11.20;99.90
68139;DHT22;54940;50.842;4.410;2024-03-23T12:45:49;11.60;99.90
68139;DHT22;54940;50.842;4.410;2024-03-23T12:48:17;11.90;99.90
68139;DHT22;54940;50.842;4.410;2024-03-23T12:53:20;12.50;99.90
68139;DHT22;54940;50.842;4.410;2024-03-23T13:00:54;12.40;99.90
68139;DHT22;54940;50.842;4.410;2024-03-23T13:14:10;12.60;99.90
68139;DHT22;54940;50.842;4.410;2024-03-23T13:16:35;12.90;99.90
68139;DHT22;54940;50.842;4.410;2024-03-23T13:21:59;12.80;99.90
68139;DHT22;54940;50.842;4.410;2024-03-23T13:24:28;12.80;99.90
68139;DHT22;54940;50.842;4.410;2024-03-23T13:26:54;12.40;99.90
68139;DHT22;54940;50.842;4.410;2024-03-23T13:29:20;12.10;99.90
68139;DHT22;54940;50.842;4.410;2024-03-23T13:31:52;11.80;99.90
68139;DHT22;54940;50.842;4.410;2024-03-23T13:34:18;12.00;99.90
68139;DHT22;54940;50.842;4.410;2024-03-23T13:36:45;12.40;99.90
68139;DHT22;54940;50.842;4.410;2024-03-23T13:49:30;11.80;99.90
68139;DHT22;54940;50.842;4.410;2024-03-23T13:52:15;11.80;99.90
68139;DHT22;54940;50.842;4.410;2024-03-23T13:54:47;12.20;99.90
68139;DHT22;54940;50.842;4.410;2024-03-23T13:57:14;12.30;99.90
68139;DHT22;54940;50.842;4.410;2024-03-23T13:59:47;12.10;99.90
68139;DHT22;54940;50.842;4.410;2024-03-23T14:02:15;12.10;99.90
68139;DHT22;54940;50.842;4.410;2024-03-23T14:04:44;12.30;99.90
68139;DHT22;54940;50.842;4.410;2024-03-23T14:07:09;12.40;99.90
68139;DHT22;54940;50.842;4.410;2024-03-23T14:09:37;12.50;99.90
68139;DHT22;54940;50.842;4.410;2024-03-23T14:12:06;12.20;99.90
68139;DHT22;54940;50.842;4.410;2024-03-23T14:14:35;12.10;99.90
68139;DHT22;54940;50.842;4.410;2024-03-23T14:17:03;11.70;99.90
68139;DHT22;54940;50.842;4.410;2024-03-23T14:19:30;11.40;99.90
68139;DHT22;54940;50.842;4.410;2024-03-23T14:21:56;11.30;99.90
68139;DHT22;54940;50.842;4.410;2024-03-23T14:24:23;11.50;99.90
68139;DHT22;54940;50.842;4.410;2024-03-23T14:26:52;11.60;99.90
68139;DHT22;54940;50.842;4.410;2024-03-23T14:29:20;11.70;99.90
68139;DHT22;54940;50.842;4.410;2024-03-23T14:31:46;11.80;99.90
68139;DHT22;54940;50.842;4.410;2024-03-23T14:34:21;12.00;99.90
68139;DHT22;54940;50.842;4.410;2024-03-23T14:36:47;12.20;99.90
68139;DHT22;54940;50.842;4.410;2024-03-23T14:39:13;12.20;99.90
68139;DHT22;54940;50.842;4.410;2024-03-23T14:41:40;12.00;99.90
68139;DHT22;54940;50.842;4.410;2024-03-23T14:44:06;11.70;99.90
68139;DHT22;54940;50.842;4.410;2024-03-23T14:46:31;11.70;99.90
68139;DHT22;54940;50.842;4.410;2024-03-23T14:48:58;11.70;99.90
68139;DHT22;54940;50.842;4.410;2024-03-23T14:51:24;11.60;99.90
68139;DHT22;54940;50.842;4.410;2024-03-23T14:56:53;11.90;99.90
68139;DHT22;54940;50.842;4.410;2024-03-23T14:59:18;11.90;99.90
68139;DHT22;54940;50.842;4.410;2024-03-23T15:01:47;12.00;99.90
68139;DHT22;54940;50.842;4.410;2024-03-23T15:04:25;12.00;99.90
68139;DHT22;54940;50.842;4.410;2024-03-23T15:06:51;11.90;99.90
68139;DHT22;54940;50.842;4.410;2024-03-23T15:09:17;11.70;99.90
68139;DHT22;54940;50.842;4.410;2024-03-23T15:11:43;11.70;99.90
68139;DHT22;54940;50.842;4.410;2024-03-23T15:14:11;11.70;99.90
68139;DHT22;54940;50.842;4.410;2024-03-23T15:16:40;11.60;99.90
68139;DHT22;54940;50.842;4.410;2024-03-23T15:19:07;11.60;99.90
68139;DHT22;54940;50.842;4.410;2024-03-23T15:21:33;11.60;99.90
68139;DHT22;54940;50.842;4.410;2024-03-23T15:23:59;11.40;99.90
68139;DHT22;54940;50.842;4.410;2024-03-23T15:26:27;11.40;99.90
68139;DHT22;54940;50.842;4.410;2024-03-23T15:28:54;11.20;99.90
68139;DHT22;54940;50.842;4.410;2024-03-23T15:31:22;11.20;99.90
68139;DHT22;54940;50.842;4.410;2024-03-23T15:33:49;11.30;99.90
68139;DHT22;54940;50.842;4.410;2024-03-23T15:36:16;11.40;99.90
68139;DHT22;54940;50.842;4.410;2024-03-23T15:38:43;11.40;99.90
68139;DHT22;54940;50.842;4.410;2024-03-23T15:41:09;11.40;99.90
68139;DHT22;54940;50.842;4.410;2024-03-23T15:43:36;11.30;99.90
68139;DHT22;54940;50.842;4.410;2024-03-23T15:46:04;11.20;99.90
68139;DHT22;54940;50.842;4.410;2024-03-23T15:48:31;11.10;99.90
68139;DHT22;54940;50.842;4.410;2024-03-23T15:50:58;11.00;99.90
68139;DHT22;54940;50.842;4.410;2024-03-23T15:53:25;11.00;99.90
68139;DHT22;54940;50.842;4.410;2024-03-23T15:55:59;11.10;99.90
68139;DHT22;54940;50.842;4.410;2024-03-23T15:58:28;11.00;99.90
68139;DHT22;54940;50.842;4.410;2024-03-23T16:03:24;11.10;99.90
68139;DHT22;54940;50.842;4.410;2024-03-23T16:05:51;11.20;99.90
68139;DHT22;54940;50.842;4.410;2024-03-23T16:08:17;11.10;99.90
68139;DHT22;54940;50.842;4.410;2024-03-23T16:10:42;11.10;99.90
68139;DHT22;54940;50.842;4.410;2024-03-23T16:13:08;11.10;99.90
68139;DHT22;54940;50.842;4.410;2024-03-23T16:15:38;11.00;99.90
68139;DHT22;54940;50.842;4.410;2024-03-23T16:18:04;11.10;99.90
68139;DHT22;54940;50.842;4.410;2024-03-23T16:20:30;11.00;99.90
68139;DHT22;54940;50.842;4.410;2024-03-23T16:22:59;10.90;99.90
68139;DHT22;54940;50.842;4.410;2024-03-23T16:25:25;11.00;99.90
68139;DHT22;54940;50.842;4.410;2024-03-23T16:27:51;11.00;99.90
68139;DHT22;54940;50.842;4.410;2024-03-23T16:30:16;10.80;99.90
68139;DHT22;54940;50.842;4.410;2024-03-23T16:32:42;10.80;99.90
68139;DHT22;54940;50.842;4.410;2024-03-23T16:35:11;10.70;99.90
68139;DHT22;54940;50.842;4.410;2024-03-23T16:37:41;10.80;99.90
68139;DHT22;54940;50.842;4.410;2024-03-23T16:40:07;10.70;99.90
68139;DHT22;54940;50.842;4.410;2024-03-23T16:42:34;10.60;99.90
68139;DHT22;54940;50.842;4.410;2024-03-23T16:45:01;10.70;99.90
68139;DHT22;54940;50.842;4.410;2024-03-23T16:47:28;10.70;99.90
68139;DHT22;54940;50.842;4.410;2024-03-23T16:49:53;10.80;99.90
68139;DHT22;54940;50.842;4.410;2024-03-23T16:52:19;10.80;99.90
68139;DHT22;54940;50.842;4.410;2024-03-23T16:54:44;10.70;99.90
68139;DHT22;54940;50.842;4.410;2024-03-23T16:57:10;10.80;99.90
68139;DHT22;54940;50.842;4.410;2024-03-23T16:59:35;10.80;99.90
68139;DHT22;54940;50.842;4.410;2024-03-23T17:02:01;10.80;99.90
68139;DHT22;54940;50.842;4.410;2024-03-23T17:04:27;10.80;99.90
68139;DHT22;54940;50.842;4.410;2024-03-23T17:06:55;10.70;99.90
68139;DHT22;54940;50.842;4.410;2024-03-23T17:09:23;10.70;99.90
68139;DHT22;54940;50.842;4.410;2024-03-23T17:11:50;10.60;99.90
68139;DHT22;54940;50.842;4.410;2024-03-23T17:14:16;10.50;99.90
68139;DHT22;54940;50.842;4.410;2024-03-23T17:16:42;10.60;99.90
68139;DHT22;54940;50.842;4.410;2024-03-23T17:19:08;10.60;99.90
68139;DHT22;54940;50.842;4.410;2024-03-23T17:21:34;10.50;99.90
68139;DHT22;54940;50.842;4.410;2024-03-23T17:24:15;10.50;99.90
68139;DHT22;54940;50.842;4.410;2024-03-23T17:27:02;10.40;99.90
68139;DHT22;54940;50.842;4.410;2024-03-23T17:29:30;10.40;99.90
68139;DHT22;54940;50.842;4.410;2024-03-23T17:31:56;10.30;99.90
68139;DHT22;54940;50.842;4.410;2024-03-23T17:34:24;10.30;99.90
68139;DHT22;54940;50.842;4.410;2024-03-23T17:36:50;10.30;99.90
68139;DHT22;54940;50.842;4.410;2024-03-23T17:39:16;10.30;99.90
68139;DHT22;54940;50.842;4.410;2024-03-23T17:41:42;10.40;99.90
68139;DHT22;54940;50.842;4.410;2024-03-23T17:44:07;10.40;99.90
68139;DHT22;54940;50.842;4.410;2024-03-23T17:46:33;10.10;99.90
68139;DHT22;54940;50.842;4.410;2024-03-23T17:48:58;9.80;99.90
68139;DHT22;54940;50.842;4.410;2024-03-23T17:51:24;9.40;99.90
68139;DHT22;54940;50.842;4.410;2024-03-23T17:53:49;9.20;99.90
68139;DHT22;54940;50.842;4.410;2024-03-23T17:56:15;9.10;99.90
68139;DHT22;54940;50.842;4.410;2024-03-23T17:58:47;9.10;99.90
68139;DHT22;54940;50.842;4.410;2024-03-23T18:01:12;8.70;99.90
68139;DHT22;54940;50.842;4.410;2024-03-23T18:03:38;8.50;99.90
68139;DHT22;54940;50.842;4.410;2024-03-23T18:06:06;8.30;99.90
68139;DHT22;54940;50.842;4.410;2024-03-23T18:08:37;8.20;99.90
68139;DHT22;54940;50.842;4.410;2024-03-23T18:11:06;8.20;99.90
68139;DHT22;54940;50.842;4.410;2024-03-23T18:13:32;8.10;99.90
68139;DHT22;54940;50.842;4.410;2024-03-23T18:15:57;8.10;99.90
68139;DHT22;54940;50.842;4.410;2024-03-23T18:18:24;8.10;99.90
68139;DHT22;54940;50.842;4.410;2024-03-23T18:20:51;8.10;99.90
68139;DHT22;54940;50.842;4.410;2024-03-23T18:23:17;8.20;99.90
68139;DHT22;54940;50.842;4.410;2024-03-23T18:25:54;8.40;99.90
68139;DHT22;54940;50.842;4.410;2024-03-23T18:28:27;8.50;99.90
68139;DHT22;54940;50.842;4.410;2024-03-23T18:30:58;8.60;99.90
68139;DHT22;54940;50.842;4.410;2024-03-23T18:33:24;8.70;99.90
68139;DHT22;54940;50.842;4.410;2024-03-23T18:35:51;8.70;99.90
68139;DHT22;54940;50.842;4.410;2024-03-23T18:38:20;8.70;99.90
68139;DHT22;54940;50.842;4.410;2024-03-23T18:40:46;8.80;99.90
68139;DHT22;54940;50.842;4.410;2024-03-23T18:43:12;8.70;99.90
68139;DHT22;54940;50.842;4.410;2024-03-23T18:45:48;8.70;99.90
68139;DHT22;54940;50.842;4.410;2024-03-23T18:48:13;8.50;99.90
68139;DHT22;54940;50.842;4.410;2024-03-23T18:50:41;8.30;99.90
68139;DHT22;54940;50.842;4.410;2024-03-23T18:53:07;8.10;99.90
68139;DHT22;54940;50.842;4.410;2024-03-23T18:55:37;7.90;99.90
68139;DHT22;54940;50.842;4.410;2024-03-23T18:58:03;7.80;99.90
68139;DHT22;54940;50.842;4.410;2024-03-23T19:00:30;7.60;99.90
68139;DHT22;54940;50.842;4.410;2024-03-23T19:02:56;7.50;99.90
68139;DHT22;54940;50.842;4.410;2024-03-23T19:05:24;7.50;99.90
68139;DHT22;54940;50.842;4.410;2024-03-23T19:07:51;7.60;99.90
68139;DHT22;54940;50.842;4.410;2024-03-23T19:10:19;7.60;99.90
68139;DHT22;54940;50.842;4.410;2024-03-23T19:12:47;7.70;99.90
68139;DHT22;54940;50.842;4.410;2024-03-23T19:15:13;7.70;99.90
68139;DHT22;54940;50.842;4.410;2024-03-23T19:17:47;7.70;99.90
68139;DHT22;54940;50.842;4.410;2024-03-23T19:20:13;7.70;99.90
68139;DHT22;54940;50.842;4.410;2024-03-23T19:22:39;7.60;99.90
68139;DHT22;54940;50.842;4.410;2024-03-23T19:25:08;7.60;99.90
68139;DHT22;54940;50.842;4.410;2024-03-23T19:27:37;7.50;99.90
68139;DHT22;54940;50.842;4.410;2024-03-23T19:30:07;7.50;99.90
68139;DHT22;54940;50.842;4.410;2024-03-23T19:32:51;7.40;99.90
68139;DHT22;54940;50.842;4.410;2024-03-23T19:35:24;7.20;99.90
68139;DHT22;54940;50.842;4.410;2024-03-23T19:38:00;7.20;99.90
68139;DHT22;54940;50.842;4.410;2024-03-23T19:40:34;7.20;99.90
68139;DHT22;54940;50.842;4.410;2024-03-23T19:43:09;7.20;99.90
68139;DHT22;54940;50.842;4.410;2024-03-23T19:45:37;7.20;99.90
68139;DHT22;54940;50.842;4.410;2024-03-23T19:48:14;7.10;99.90
68139;DHT22;54940;50.842;4.410;2024-03-23T19:50:40;7.20;99.90
68139;DHT22;54940;50.842;4.410;2024-03-23T19:53:09;7.10;99.90
68139;DHT22;54940;50.842;4.410;2024-03-23T19:55:37;7.20;99.90
68139;DHT22;54940;50.842;4.410;2024-03-23T19:58:04;7.20;99.90
68139;DHT22;54940;50.842;4.410;2024-03-23T20:00:31;7.30;99.90
68139;DHT22;54940;50.842;4.410;2024-03-23T20:02:59;7.30;99.90
68139;DHT22;54940;50.842;4.410;2024-03-23T20:05:29;7.30;99.90
68139;DHT22;54940;50.842;4.410;2024-03-23T20:07:55;7.40;99.90
68139;DHT22;54940;50.842;4.410;2024-03-23T20:10:20;7.30;99.90
68139;DHT22;54940;50.842;4.410;2024-03-23T20:12:46;7.30;99.90
68139;DHT22;54940;50.842;4.410;2024-03-23T20:15:11;7.20;99.90
68139;DHT22;54940;50.842;4.410;2024-03-23T20:17:38;7.20;99.90
68139;DHT22;54940;50.842;4.410;2024-03-23T20:20:03;7.20;99.90
68139;DHT22;54940;50.842;4.410;2024-03-23T20:22:29;7.20;99.90
68139;DHT22;54940;50.842;4.410;2024-03-23T20:24:54;7.20;99.90
68139;DHT22;54940;50.842;4.410;2024-03-23T20:27:20;7.20;99.90
68139;DHT22;54940;50.842;4.410;2024-03-23T20:29:45;7.20;99.90
68139;DHT22;54940;50.842;4.410;2024-03-23T20:32:13;7.20;99.90
68139;DHT22;54940;50.842;4.410;2024-03-23T20:34:39;7.20;99.90
68139;DHT22;54940;50.842;4.410;2024-03-23T20:37:04;7.20;99.90
68139;DHT22;54940;50.842;4.410;2024-03-23T20:39:30;7.10;99.90
68139;DHT22;54940;50.842;4.410;2024-03-23T20:41:55;7.10;99.90
68139;DHT22;54940;50.842;4.410;2024-03-23T20:44:23;7.00;99.90
68139;DHT22;54940;50.842;4.410;2024-03-23T20:46:50;7.00;99.90
68139;DHT22;54940;50.842;4.410;2024-03-23T20:49:16;7.00;99.90
68139;DHT22;54940;50.842;4.410;2024-03-23T20:51:41;7.10;99.90
68139;DHT22;54940;50.842;4.410;2024-03-23T20:54:07;7.10;99.90
68139;DHT22;54940;50.842;4.410;2024-03-23T20:56:35;7.10;99.90
68139;DHT22;54940;50.842;4.410;2024-03-23T20:59:00;7.00;99.90
68139;DHT22;54940;50.842;4.410;2024-03-23T21:01:26;7.00;99.90
68139;DHT22;54940;50.842;4.410;2024-03-23T21:03:51;7.00;99.90
68139;DHT22;54940;50.842;4.410;2024-03-23T21:06:17;7.00;99.90
68139;DHT22;54940;50.842;4.410;2024-03-23T21:08:43;7.00;99.90
68139;DHT22;54940;50.842;4.410;2024-03-23T21:11:08;6.90;99.90
68139;DHT22;54940;50.842;4.410;2024-03-23T21:13:34;6.90;99.90
68139;DHT22;54940;50.842;4.410;2024-03-23T21:16:03;6.90;99.90
68139;DHT22;54940;50.842;4.410;2024-03-23T21:18:28;6.90;99.90
68139;DHT22;54940;50.842;4.410;2024-03-23T21:20:58;6.80;99.90
68139;DHT22;54940;50.842;4.410;2024-03-23T21:23:24;6.80;99.90
68139;DHT22;54940;50.842;4.410;2024-03-23T21:25:53;6.80;99.90
68139;DHT22;54940;50.842;4.410;2024-03-23T21:28:19;7.00;99.90
68139;DHT22;54940;50.842;4.410;2024-03-23T21:30:44;7.00;99.90
68139;DHT22;54940;50.842;4.410;2024-03-23T21:33:12;7.10;99.90
68139;DHT22;54940;50.842;4.410;2024-03-23T21:35:39;7.00;99.90
68139;DHT22;54940;50.842;4.410;2024-03-23T21:38:05;7.00;99.90
68139;DHT22;54940;50.842;4.410;2024-03-23T21:40:31;6.90;99.90
68139;DHT22;54940;50.842;4.410;2024-03-23T21:42:56;6.90;99.90
68139;DHT22;54940;50.842;4.410;2024-03-23T21:45:22;6.90;99.90
68139;DHT22;54940;50.842;4.410;2024-03-23T21:47:47;6.80;99.90
68139;DHT22;54940;50.842;4.410;2024-03-23T21:50:13;6.90;99.90
68139;DHT22;54940;50.842;4.410;2024-03-23T21:52:38;6.80;99.90
68139;DHT22;54940;50.842;4.410;2024-03-23T21:55:04;6.80;99.90
68139;DHT22;54940;50.842;4.410;2024-03-23T21:57:30;6.80;99.90
68139;DHT22;54940;50.842;4.410;2024-03-23T21:59:55;6.90;99.90
68139;DHT22;54940;50.842;4.410;2024-03-23T22:02:21;6.80;99.90
68139;DHT22;54940;50.842;4.410;2024-03-23T22:04:47;6.80;99.90
68139;DHT22;54940;50.842;4.410;2024-03-23T22:07:13;6.70;99.90
68139;DHT22;54940;50.842;4.410;2024-03-23T22:09:39;6.80;99.90
68139;DHT22;54940;50.842;4.410;2024-03-23T22:12:04;6.80;99.90
68139;DHT22;54940;50.842;4.410;2024-03-23T22:14:30;6.70;99.90
68139;DHT22;54940;50.842;4.410;2024-03-23T22:16:57;6.60;99.90
68139;DHT22;54940;50.842;4.410;2024-03-23T22:19:23;6.60;99.90
68139;DHT22;54940;50.842;4.410;2024-03-23T22:21:51;6.60;99.90
68139;DHT22;54940;50.842;4.410;2024-03-23T22:24:17;6.60;99.90
68139;DHT22;54940;50.842;4.410;2024-03-23T22:29:18;6.70;99.90
68139;DHT22;54940;50.842;4.410;2024-03-23T22:31:46;6.60;99.90
68139;DHT22;54940;50.842;4.410;2024-03-23T22:34:11;6.60;99.90
68139;DHT22;54940;50.842;4.410;2024-03-23T22:36:37;6.60;99.90
68139;DHT22;54940;50.842;4.410;2024-03-23T22:39:06;6.60;99.90
68139;DHT22;54940;50.842;4.410;2024-03-23T22:41:32;6.70;99.90
